sensor_id;sensor_type;location;lat;lon;timestamp;pressure;altitude;pressure_sealevel;temperature;humidity
54042;BME280;41156;51.508;5.406;2023-04-16T00:01:42;102051.09;;;8.08;100.00
54042;BME280;41156;51.508;5.406;2023-04-16T00:04:43;102048.41;;;8.08;100.00
54042;BME280;41156;51.508;5.406;2023-04-16T00:07:43;102051.59;;;8.03;100.00
54042;BME280;41156;51.508;5.406;2023-04-16T00:10:43;102051.09;;;8.08;100.00
54042;BME280;41156;51.508;5.406;2023-04-16T00:13:43;102049.91;;;8.10;100.00
54042;BME280;41156;51.508;5.406;2023-04-16T00:16:44;102050.94;;;8.09;100.00
54042;BME280;41156;51.508;5.406;2023-04-16T00:19:44;102056.31;;;8.09;100.00
54042;BME280;41156;51.508;5.406;2023-04-16T00:22:45;102049.91;;;8.10;100.00
54042;BME280;41156;51.508;5.406;2023-04-16T00:25:45;102050.41;;;8.14;100.00
54042;BME280;41156;51.508;5.406;2023-04-16T00:28:46;102049.06;;;8.18;100.00
54042;BME280;41156;51.508;5.406;2023-04-16T00:31:46;102052.44;;;8.20;100.00
54042;BME280;41156;51.508;5.406;2023-04-16T00:34:46;102051.09;;;8.16;100.00
54042;BME280;41156;51.508;5.406;2023-04-16T00:37:46;102050.91;;;8.18;100.00
54042;BME280;41156;51.508;5.406;2023-04-16T00:40:47;102051.94;;;8.17;100.00
54042;BME280;41156;51.508;5.406;2023-04-16T00:43:48;102054.97;;;8.22;100.00
54042;BME280;41156;51.508;5.406;2023-04-16T00:46:48;102053.44;;;8.19;100.00
54042;BME280;41156;51.508;5.406;2023-04-16T00:49:49;102055.28;;;8.19;100.00
54042;BME280;41156;51.508;5.406;2023-04-16T00:52:49;102050.75;;;8.19;100.00
54042;BME280;41156;51.508;5.406;2023-04-16T00:55:50;102048.22;;;8.18;100.00
54042;BME280;41156;51.508;5.406;2023-04-16T00:58:50;102058.66;;;8.21;100.00
54042;BME280;41156;51.508;5.406;2023-04-16T01:01:51;102049.91;;;8.19;100.00
54042;BME280;41156;51.508;5.406;2023-04-16T01:04:51;102042.50;;;8.21;100.00
54042;BME280;41156;51.508;5.406;2023-04-16T01:07:51;102039.13;;;8.19;100.00
54042;BME280;41156;51.508;5.406;2023-04-16T01:10:52;102043.19;;;8.23;100.00
54042;BME280;41156;51.508;5.406;2023-04-16T01:13:52;102048.22;;;8.26;100.00
54042;BME280;41156;51.508;5.406;2023-04-16T01:16:52;102047.38;;;8.25;100.00
54042;BME280;41156;51.508;5.406;2023-04-16T01:19:52;102043.00;;;8.24;100.00
54042;BME280;41156;51.508;5.406;2023-04-16T01:22:53;102042.66;;;8.27;100.00
54042;BME280;41156;51.508;5.406;2023-04-16T01:25:53;102038.97;;;8.28;100.00
54042;BME280;41156;51.508;5.406;2023-04-16T01:28:54;102041.00;;;8.26;100.00
54042;BME280;41156;51.508;5.406;2023-04-16T01:31:54;102047.22;;;8.27;100.00
54042;BME280;41156;51.508;5.406;2023-04-16T01:34:54;102038.47;;;8.33;100.00
54042;BME280;41156;51.508;5.406;2023-04-16T01:37:55;102048.19;;;8.34;100.00
54042;BME280;41156;51.508;5.406;2023-04-16T01:40:56;102047.19;;;8.35;100.00
54042;BME280;41156;51.508;5.406;2023-04-16T01:43:56;102051.59;;;8.36;100.00
54042;BME280;41156;51.508;5.406;2023-04-16T01:46:57;102049.06;;;8.34;100.00
54042;BME280;41156;51.508;5.406;2023-04-16T01:49:58;102054.13;;;8.38;100.00
54042;BME280;41156;51.508;5.406;2023-04-16T01:52:59;102050.22;;;8.40;100.00
54042;BME280;41156;51.508;5.406;2023-04-16T01:56:01;102055.59;;;8.40;100.00
54042;BME280;41156;51.508;5.406;2023-04-16T01:59:01;102056.44;;;8.41;100.00
54042;BME280;41156;51.508;5.406;2023-04-16T02:02:09;102051.59;;;8.36;100.00
54042;BME280;41156;51.508;5.406;2023-04-16T02:05:10;102053.59;;;8.34;100.00
54042;BME280;41156;51.508;5.406;2023-04-16T02:08:10;102050.72;;;8.36;100.00
54042;BME280;41156;51.508;5.406;2023-04-16T02:11:10;102051.41;;;8.38;100.00
54042;BME280;41156;51.508;5.406;2023-04-16T02:14:10;102046.19;;;8.36;100.00
54042;BME280;41156;51.508;5.406;2023-04-16T02:17:11;102049.56;;;8.38;100.00
54042;BME280;41156;51.508;5.406;2023-04-16T02:20:11;102047.69;;;8.39;100.00
54042;BME280;41156;51.508;5.406;2023-04-16T02:23:12;102046.69;;;8.40;100.00
54042;BME280;41156;51.508;5.406;2023-04-16T02:26:14;102046.38;;;8.43;100.00
54042;BME280;41156;51.508;5.406;2023-04-16T02:29:14;102049.22;;;8.41;100.00
54042;BME280;41156;51.508;5.406;2023-04-16T02:32:15;102047.22;;;8.43;100.00
54042;BME280;41156;51.508;5.406;2023-04-16T02:35:15;102038.97;;;8.45;100.00
54042;BME280;41156;51.508;5.406;2023-04-16T02:38:16;102043.16;;;8.47;100.00
54042;BME280;41156;51.508;5.406;2023-04-16T02:41:16;102047.72;;;8.47;100.00
54042;BME280;41156;51.508;5.406;2023-04-16T02:44:16;102047.72;;;8.47;100.00
54042;BME280;41156;51.508;5.406;2023-04-16T02:47:16;102045.34;;;8.44;100.00
54042;BME280;41156;51.508;5.406;2023-04-16T02:50:17;102046.00;;;8.46;100.00
54042;BME280;41156;51.508;5.406;2023-04-16T02:53:17;102048.53;;;8.47;100.00
54042;BME280;41156;51.508;5.406;2023-04-16T02:56:17;102061.84;;;8.49;100.00
54042;BME280;41156;51.508;5.406;2023-04-16T02:59:18;102062.72;;;8.49;100.00
54042;BME280;41156;51.508;5.406;2023-04-16T03:02:18;102061.34;;;8.45;100.00
54042;BME280;41156;51.508;5.406;2023-04-16T03:05:18;102065.41;;;8.49;100.00
54042;BME280;41156;51.508;5.406;2023-04-16T03:08:18;102065.72;;;8.55;100.00
54042;BME280;41156;51.508;5.406;2023-04-16T03:11:19;102067.41;;;8.47;100.00
54042;BME280;41156;51.508;5.406;2023-04-16T03:14:19;102072.78;;;8.56;100.00
54042;BME280;41156;51.508;5.406;2023-04-16T03:17:19;102071.28;;;8.53;100.00
54042;BME280;41156;51.508;5.406;2023-04-16T03:20:20;102079.22;;;8.46;100.00
54042;BME280;41156;51.508;5.406;2023-04-16T03:23:20;102076.19;;;8.49;100.00
54042;BME280;41156;51.508;5.406;2023-04-16T03:26:20;102062.88;;;8.48;100.00
54042;BME280;41156;51.508;5.406;2023-04-16T03:29:21;102073.47;;;8.49;100.00
54042;BME280;41156;51.508;5.406;2023-04-16T03:32:21;102075.66;;;8.46;100.00
54042;BME280;41156;51.508;5.406;2023-04-16T03:35:21;102076.69;;;8.45;100.00
54042;BME280;41156;51.508;5.406;2023-04-16T03:38:23;102083.94;;;8.44;100.00
54042;BME280;41156;51.508;5.406;2023-04-16T03:41:24;102087.13;;;8.48;100.00
54042;BME280;41156;51.508;5.406;2023-04-16T03:44:24;102077.50;;;8.45;100.00
54042;BME280;41156;51.508;5.406;2023-04-16T03:47:24;102077.50;;;8.45;100.00
54042;BME280;41156;51.508;5.406;2023-04-16T03:50:25;102079.38;;;8.45;100.00
54042;BME280;41156;51.508;5.406;2023-04-16T03:53:25;102084.09;;;8.43;100.00
54042;BME280;41156;51.508;5.406;2023-04-16T03:56:25;102079.84;;;8.40;100.00
54042;BME280;41156;51.508;5.406;2023-04-16T03:59:25;102076.50;;;8.38;100.00
54042;BME280;41156;51.508;5.406;2023-04-16T04:02:26;102083.38;;;8.41;100.00
54042;BME280;41156;51.508;5.406;2023-04-16T04:05:26;102081.22;;;8.36;100.00
54042;BME280;41156;51.508;5.406;2023-04-16T04:08:26;102074.63;;;8.30;100.00
54042;BME280;41156;51.508;5.406;2023-04-16T04:11:27;102076.50;;;8.30;100.00
54042;BME280;41156;51.508;5.406;2023-04-16T04:14:27;102069.75;;;8.34;100.00
54042;BME280;41156;51.508;5.406;2023-04-16T04:17:27;102075.81;;;8.36;100.00
54042;BME280;41156;51.508;5.406;2023-04-16T04:20:27;102080.53;;;8.34;100.00
54042;BME280;41156;51.508;5.406;2023-04-16T04:23:28;102082.22;;;8.35;100.00
54042;BME280;41156;51.508;5.406;2023-04-16T04:26:28;102079.03;;;8.31;100.00
54042;BME280;41156;51.508;5.406;2023-04-16T04:29:28;102086.75;;;8.34;100.00
54042;BME280;41156;51.508;5.406;2023-04-16T04:32:29;102088.09;;;8.30;100.00
54042;BME280;41156;51.508;5.406;2023-04-16T04:35:30;102087.25;;;8.30;100.00
54042;BME280;41156;51.508;5.406;2023-04-16T04:38:30;102082.72;;;8.30;100.00
54042;BME280;41156;51.508;5.406;2023-04-16T04:41:30;102085.56;;;8.29;100.00
54042;BME280;41156;51.508;5.406;2023-04-16T04:44:31;102095.00;;;8.33;100.00
54042;BME280;41156;51.508;5.406;2023-04-16T04:47:31;102094.84;;;8.34;100.00
54042;BME280;41156;51.508;5.406;2023-04-16T04:50:31;102099.03;;;8.37;100.00
54042;BME280;41156;51.508;5.406;2023-04-16T04:53:32;102100.91;;;8.37;100.00
54042;BME280;41156;51.508;5.406;2023-04-16T04:56:32;102102.06;;;8.34;100.00
54042;BME280;41156;51.508;5.406;2023-04-16T04:59:32;102104.59;;;8.36;100.00
54042;BME280;41156;51.508;5.406;2023-04-16T05:02:33;102099.19;;;8.36;100.00
54042;BME280;41156;51.508;5.406;2023-04-16T05:05:33;102097.38;;;8.36;100.00
54042;BME280;41156;51.508;5.406;2023-04-16T05:08:33;102097.19;;;8.38;100.00
54042;BME280;41156;51.508;5.406;2023-04-16T05:11:33;102104.41;;;8.37;100.00
54042;BME280;41156;51.508;5.406;2023-04-16T05:14:34;102104.75;;;8.34;100.00
54042;BME280;41156;51.508;5.406;2023-04-16T05:17:35;102100.06;;;8.36;100.00
54042;BME280;41156;51.508;5.406;2023-04-16T05:20:35;102104.41;;;8.37;100.00
54042;BME280;41156;51.508;5.406;2023-04-16T05:23:36;102107.78;;;8.39;100.00
54042;BME280;41156;51.508;5.406;2023-04-16T05:26:37;102107.97;;;8.38;100.00
54042;BME280;41156;51.508;5.406;2023-04-16T05:29:37;102105.44;;;8.36;100.00
54042;BME280;41156;51.508;5.406;2023-04-16T05:32:38;102119.59;;;8.38;100.00
54042;BME280;41156;51.508;5.406;2023-04-16T05:35:40;102122.28;;;8.38;100.00
54042;BME280;41156;51.508;5.406;2023-04-16T05:38:40;102119.41;;;8.40;100.00
54042;BME280;41156;51.508;5.406;2023-04-16T05:41:40;102123.78;;;8.41;100.00
54042;BME280;41156;51.508;5.406;2023-04-16T05:44:40;102124.63;;;8.41;100.00
54042;BME280;41156;51.508;5.406;2023-04-16T05:47:41;102133.41;;;8.43;100.00
54042;BME280;41156;51.508;5.406;2023-04-16T05:50:41;102128.50;;;8.39;100.00
54042;BME280;41156;51.508;5.406;2023-04-16T05:53:41;102134.72;;;8.39;100.00
54042;BME280;41156;51.508;5.406;2023-04-16T05:56:42;102139.09;;;8.40;100.00
54042;BME280;41156;51.508;5.406;2023-04-16T05:59:42;102141.50;;;8.43;100.00
54042;BME280;41156;51.508;5.406;2023-04-16T06:02:42;102141.16;;;8.46;100.00
54042;BME280;41156;51.508;5.406;2023-04-16T06:05:43;102145.88;;;8.44;100.00
54042;BME280;41156;51.508;5.406;2023-04-16T06:08:43;102149.25;;;8.46;100.00
54042;BME280;41156;51.508;5.406;2023-04-16T06:11:43;102143.53;;;8.49;100.00
54042;BME280;41156;51.508;5.406;2023-04-16T06:14:44;102150.75;;;8.49;100.00
54042;BME280;41156;51.508;5.406;2023-04-16T06:17:44;102144.34;;;8.50;100.00
54042;BME280;41156;51.508;5.406;2023-04-16T06:20:46;102147.06;;;8.50;100.00
54042;BME280;41156;51.508;5.406;2023-04-16T06:23:46;102144.84;;;8.54;100.00
54042;BME280;41156;51.508;5.406;2023-04-16T06:26:47;102151.94;;;8.55;100.00
54042;BME280;41156;51.508;5.406;2023-04-16T06:29:47;102151.94;;;8.55;100.00
54042;BME280;41156;51.508;5.406;2023-04-16T06:32:48;102159.69;;;8.58;100.00
54042;BME280;41156;51.508;5.406;2023-04-16T06:35:48;102155.63;;;8.62;100.00
54042;BME280;41156;51.508;5.406;2023-04-16T06:38:48;102160.34;;;8.68;100.00
54042;BME280;41156;51.508;5.406;2023-04-16T06:41:49;102159.31;;;8.69;100.00
54042;BME280;41156;51.508;5.406;2023-04-16T06:44:49;102171.63;;;8.72;100.00
54042;BME280;41156;51.508;5.406;2023-04-16T06:47:50;102165.56;;;8.69;100.00
54042;BME280;41156;51.508;5.406;2023-04-16T06:50:51;102177.50;;;8.75;100.00
54042;BME280;41156;51.508;5.406;2023-04-16T06:53:51;102171.13;;;8.76;100.00
54042;BME280;41156;51.508;5.406;2023-04-16T06:56:51;102181.72;;;8.78;100.00
54042;BME280;41156;51.508;5.406;2023-04-16T06:59:52;102186.25;;;8.85;100.00
54042;BME280;41156;51.508;5.406;2023-04-16T07:02:52;102184.41;;;8.86;100.00
54042;BME280;41156;51.508;5.406;2023-04-16T07:05:52;102186.59;;;8.82;100.00
54042;BME280;41156;51.508;5.406;2023-04-16T07:08:53;102194.34;;;8.85;100.00
54042;BME280;41156;51.508;5.406;2023-04-16T07:11:53;102198.56;;;8.88;100.00
54042;BME280;41156;51.508;5.406;2023-04-16T07:14:53;102195.00;;;8.87;100.00
54042;BME280;41156;51.508;5.406;2023-04-16T07:17:54;102202.25;;;8.87;100.00
54042;BME280;41156;51.508;5.406;2023-04-16T07:20:54;102202.09;;;8.88;100.00
54042;BME280;41156;51.508;5.406;2023-04-16T07:23:54;102202.59;;;8.92;100.00
54042;BME280;41156;51.508;5.406;2023-04-16T07:26:54;102209.00;;;8.91;100.00
54042;BME280;41156;51.508;5.406;2023-04-16T07:29:55;102208.31;;;8.89;100.00
54042;BME280;41156;51.508;5.406;2023-04-16T07:32:55;102212.53;;;8.92;100.00
54042;BME280;41156;51.508;5.406;2023-04-16T07:35:56;102221.28;;;8.94;100.00
54042;BME280;41156;51.508;5.406;2023-04-16T07:38:56;102217.09;;;8.91;100.00
54042;BME280;41156;51.508;5.406;2023-04-16T07:41:56;102219.63;;;8.93;100.00
54042;BME280;41156;51.508;5.406;2023-04-16T07:44:57;102224.31;;;8.91;100.00
54042;BME280;41156;51.508;5.406;2023-04-16T07:47:57;102222.81;;;8.96;100.00
54042;BME280;41156;51.508;5.406;2023-04-16T07:50:57;102229.38;;;9.02;100.00
54042;BME280;41156;51.508;5.406;2023-04-16T07:53:58;102231.06;;;9.03;100.00
54042;BME280;41156;51.508;5.406;2023-04-16T07:56:58;102235.25;;;9.05;100.00
54042;BME280;41156;51.508;5.406;2023-04-16T07:59:58;102235.75;;;9.09;100.00
54042;BME280;41156;51.508;5.406;2023-04-16T08:03:01;102239.16;;;9.11;100.00
54042;BME280;41156;51.508;5.406;2023-04-16T08:06:01;102238.78;;;9.14;100.00
54042;BME280;41156;51.508;5.406;2023-04-16T08:09:01;102241.66;;;9.21;100.00
54042;BME280;41156;51.508;5.406;2023-04-16T08:12:02;102249.38;;;9.24;100.00
54042;BME280;41156;51.508;5.406;2023-04-16T08:15:02;102245.50;;;9.26;100.00
54042;BME280;41156;51.508;5.406;2023-04-16T08:18:03;102249.53;;;9.31;100.00
54042;BME280;41156;51.508;5.406;2023-04-16T08:21:05;102260.69;;;9.28;100.00
54042;BME280;41156;51.508;5.406;2023-04-16T08:24:05;102257.63;;;9.31;100.00
54042;BME280;41156;51.508;5.406;2023-04-16T08:27:06;102263.72;;;9.33;100.00
54042;BME280;41156;51.508;5.406;2023-04-16T08:30:07;102265.56;;;9.32;100.00
54042;BME280;41156;51.508;5.406;2023-04-16T08:33:07;102265.72;;;9.31;100.00
54042;BME280;41156;51.508;5.406;2023-04-16T08:36:08;102263.56;;;9.34;100.00
54042;BME280;41156;51.508;5.406;2023-04-16T08:39:08;102265.22;;;9.35;100.00
54042;BME280;41156;51.508;5.406;2023-04-16T08:42:20;102273.31;;;9.35;100.00
54042;BME280;41156;51.508;5.406;2023-04-16T08:45:25;102272.47;;;9.35;100.00
54042;BME280;41156;51.508;5.406;2023-04-16T08:48:28;102273.13;;;9.37;100.00
54042;BME280;41156;51.508;5.406;2023-04-16T08:51:34;102273.63;;;9.40;100.00
54042;BME280;41156;51.508;5.406;2023-04-16T08:54:43;102270.44;;;9.45;100.00
54042;BME280;41156;51.508;5.406;2023-04-16T08:57:47;102280.22;;;9.46;100.00
54042;BME280;41156;51.508;5.406;2023-04-16T09:00:49;102281.38;;;9.43;100.00
54042;BME280;41156;51.508;5.406;2023-04-16T09:03:51;102282.03;;;9.45;100.00
54042;BME280;41156;51.508;5.406;2023-04-16T09:06:52;102286.09;;;9.50;100.00
54042;BME280;41156;51.508;5.406;2023-04-16T09:09:54;102287.25;;;9.55;100.00
54042;BME280;41156;51.508;5.406;2023-04-16T09:12:56;102292.63;;;9.63;100.00
54042;BME280;41156;51.508;5.406;2023-04-16T09:15:58;102295.00;;;9.67;100.00
54042;BME280;41156;51.508;5.406;2023-04-16T09:18:58;102292.28;;;9.67;100.00
54042;BME280;41156;51.508;5.406;2023-04-16T09:22:00;102294.00;;;9.68;100.00
54042;BME280;41156;51.508;5.406;2023-04-16T09:25:00;102294.47;;;9.71;100.00
54042;BME280;41156;51.508;5.406;2023-04-16T09:28:01;102306.59;;;9.75;100.00
54042;BME280;41156;51.508;5.406;2023-04-16T09:31:17;102306.09;;;9.80;100.00
54042;BME280;41156;51.508;5.406;2023-04-16T09:34:18;102301.00;;;9.85;100.00
54042;BME280;41156;51.508;5.406;2023-04-16T09:37:18;102308.75;;;9.88;100.00
54042;BME280;41156;51.508;5.406;2023-04-16T09:40:23;102316.50;;;9.91;100.00
54042;BME280;41156;51.508;5.406;2023-04-16T09:43:25;102316.84;;;9.88;100.00
54042;BME280;41156;51.508;5.406;2023-04-16T09:46:30;102321.91;;;9.91;100.00
54042;BME280;41156;51.508;5.406;2023-04-16T09:49:34;102327.31;;;9.91;100.00
54042;BME280;41156;51.508;5.406;2023-04-16T09:52:37;102327.97;;;9.93;100.00
54042;BME280;41156;51.508;5.406;2023-04-16T09:55:37;102323.06;;;9.97;100.00
54042;BME280;41156;51.508;5.406;2023-04-16T09:58:38;102329.97;;;9.99;100.00
54042;BME280;41156;51.508;5.406;2023-04-16T10:01:38;102326.75;;;10.04;100.00
54042;BME280;41156;51.508;5.406;2023-04-16T10:04:51;102329.78;;;10.09;100.00
54042;BME280;41156;51.508;5.406;2023-04-16T10:07:51;102327.91;;;10.10;100.00
54042;BME280;41156;51.508;5.406;2023-04-16T10:10:52;102338.06;;;10.08;100.00
54042;BME280;41156;51.508;5.406;2023-04-16T10:13:53;102335.34;;;10.08;100.00
54042;BME280;41156;51.508;5.406;2023-04-16T10:16:54;102328.25;;;10.07;100.00
54042;BME280;41156;51.508;5.406;2023-04-16T10:19:56;102333.31;;;10.10;100.00
54042;BME280;41156;51.508;5.406;2023-04-16T10:22:57;102333.16;;;10.11;100.00
54042;BME280;41156;51.508;5.406;2023-04-16T10:25:59;102332.09;;;10.12;100.00
54042;BME280;41156;51.508;5.406;2023-04-16T10:28:59;102333.97;;;10.12;100.00
54042;BME280;41156;51.508;5.406;2023-04-16T10:32:00;102336.69;;;10.12;100.00
54042;BME280;41156;51.508;5.406;2023-04-16T10:35:01;102340.03;;;10.14;100.00
54042;BME280;41156;51.508;5.406;2023-04-16T10:38:21;102339.38;;;10.12;100.00
54042;BME280;41156;51.508;5.406;2023-04-16T10:41:22;102341.06;;;10.13;100.00
54042;BME280;41156;51.508;5.406;2023-04-16T10:44:23;102344.13;;;10.10;100.00
54042;BME280;41156;51.508;5.406;2023-04-16T10:47:24;102347.34;;;10.05;100.00
54042;BME280;41156;51.508;5.406;2023-04-16T10:50:33;102347.81;;;10.09;100.00
54042;BME280;41156;51.508;5.406;2023-04-16T10:53:35;102343.13;;;10.11;100.00
54042;BME280;41156;51.508;5.406;2023-04-16T10:56:36;102346.00;;;10.09;100.00
54042;BME280;41156;51.508;5.406;2023-04-16T10:59:37;102345.13;;;10.09;100.00
54042;BME280;41156;51.508;5.406;2023-04-16T11:02:41;102348.31;;;10.12;100.00
54042;BME280;41156;51.508;5.406;2023-04-16T11:05:45;102341.72;;;10.15;100.00
54042;BME280;41156;51.508;5.406;2023-04-16T11:08:50;102338.16;;;10.23;100.00
54042;BME280;41156;51.508;5.406;2023-04-16T11:11:50;102336.78;;;10.27;100.00
54042;BME280;41156;51.508;5.406;2023-04-16T11:15:01;102341.66;;;10.31;100.00
54042;BME280;41156;51.508;5.406;2023-04-16T11:18:02;102338.09;;;10.39;100.00
54042;BME280;41156;51.508;5.406;2023-04-16T11:21:07;102340.91;;;10.46;100.00
54042;BME280;41156;51.508;5.406;2023-04-16T11:24:11;102338.91;;;10.48;100.00
54042;BME280;41156;51.508;5.406;2023-04-16T11:27:12;102341.91;;;10.53;100.00
54042;BME280;41156;51.508;5.406;2023-04-16T11:30:13;102342.41;;;10.57;100.00
54042;BME280;41156;51.508;5.406;2023-04-16T11:33:13;102340.84;;;10.62;100.00
54042;BME280;41156;51.508;5.406;2023-04-16T11:36:15;102341.34;;;10.66;100.00
54042;BME280;41156;51.508;5.406;2023-04-16T11:39:16;102344.53;;;10.69;100.00
54042;BME280;41156;51.508;5.406;2023-04-16T11:42:20;102345.00;;;10.73;100.00
54042;BME280;41156;51.508;5.406;2023-04-16T11:45:21;102347.53;;;10.74;100.00
54042;BME280;41156;51.508;5.406;2023-04-16T11:48:22;102345.31;;;10.78;100.00
54042;BME280;41156;51.508;5.406;2023-04-16T11:51:22;102353.91;;;10.82;100.00
54042;BME280;41156;51.508;5.406;2023-04-16T11:54:23;102353.19;;;10.88;100.00
54042;BME280;41156;51.508;5.406;2023-04-16T11:57:28;102354.56;;;10.84;100.00
54042;BME280;41156;51.508;5.406;2023-04-16T12:00:34;102358.66;;;10.80;100.00
54042;BME280;41156;51.508;5.406;2023-04-16T12:03:40;102352.19;;;10.81;100.00
54042;BME280;41156;51.508;5.406;2023-04-16T12:10:08;102367.06;;;10.85;100.00
54042;BME280;41156;51.508;5.406;2023-04-16T12:13:13;102368.25;;;10.82;100.00
54042;BME280;41156;51.508;5.406;2023-04-16T12:16:19;102367.28;;;10.75;100.00
54042;BME280;41156;51.508;5.406;2023-04-16T12:19:20;102376.22;;;10.76;100.00
54042;BME280;41156;51.508;5.406;2023-04-16T12:22:27;102375.28;;;10.68;100.00
54042;BME280;41156;51.508;5.406;2023-04-16T12:25:28;102375.09;;;10.70;100.00
54042;BME280;41156;51.508;5.406;2023-04-16T12:28:33;102378.31;;;10.65;100.00
54042;BME280;41156;51.508;5.406;2023-04-16T12:31:37;102380.03;;;10.66;100.00
54042;BME280;41156;51.508;5.406;2023-04-16T12:34:49;102372.09;;;10.65;100.00
54042;BME280;41156;51.508;5.406;2023-04-16T12:37:49;102377.31;;;10.66;100.00
54042;BME280;41156;51.508;5.406;2023-04-16T12:40:49;102374.13;;;10.63;100.00
54042;BME280;41156;51.508;5.406;2023-04-16T12:43:49;102382.78;;;10.58;100.00
54042;BME280;41156;51.508;5.406;2023-04-16T12:46:50;102373.44;;;10.61;100.00
54042;BME280;41156;51.508;5.406;2023-04-16T12:49:51;102371.56;;;10.69;100.00
54042;BME280;41156;51.508;5.406;2023-04-16T12:52:51;102373.34;;;10.77;100.00
54042;BME280;41156;51.508;5.406;2023-04-16T12:55:51;102372.13;;;10.88;100.00
54042;BME280;41156;51.508;5.406;2023-04-16T12:58:52;102365.72;;;11.04;100.00
54042;BME280;41156;51.508;5.406;2023-04-16T13:01:52;102371.56;;;11.16;100.00
54042;BME280;41156;51.508;5.406;2023-04-16T13:04:53;102369.94;;;11.29;100.00
54042;BME280;41156;51.508;5.406;2023-04-16T13:07:53;102366.41;;;11.44;100.00
54042;BME280;41156;51.508;5.406;2023-04-16T13:10:54;102370.00;;;11.59;100.00
54042;BME280;41156;51.508;5.406;2023-04-16T13:13:54;102366.81;;;11.71;100.00
54042;BME280;41156;51.508;5.406;2023-04-16T13:16:54;102366.19;;;11.83;100.00
54042;BME280;41156;51.508;5.406;2023-04-16T13:19:55;102370.63;;;11.99;100.00
54042;BME280;41156;51.508;5.406;2023-04-16T13:22:55;102368.38;;;12.18;100.00
54042;BME280;41156;51.508;5.406;2023-04-16T13:25:55;102370.81;;;12.13;100.00
54042;BME280;41156;51.508;5.406;2023-04-16T13:28:56;102373.16;;;12.01;100.00
54042;BME280;41156;51.508;5.406;2023-04-16T13:31:56;102375.19;;;11.84;100.00
54042;BME280;41156;51.508;5.406;2023-04-16T13:34:57;102373.75;;;11.73;100.00
54042;BME280;41156;51.508;5.406;2023-04-16T13:37:57;102374.75;;;11.72;100.00
54042;BME280;41156;51.508;5.406;2023-04-16T13:40:58;102373.84;;;11.80;100.00
54042;BME280;41156;51.508;5.406;2023-04-16T13:43:58;102379.84;;;11.90;100.00
54042;BME280;41156;51.508;5.406;2023-04-16T13:46:58;102367.59;;;11.79;100.00
54042;BME280;41156;51.508;5.406;2023-04-16T13:49:59;102375.34;;;11.82;100.00
54042;BME280;41156;51.508;5.406;2023-04-16T13:52:59;102370.88;;;11.90;100.00
54042;BME280;41156;51.508;5.406;2023-04-16T13:56:00;102368.75;;;12.00;100.00
54042;BME280;41156;51.508;5.406;2023-04-16T13:59:02;102366.41;;;11.97;100.00
54042;BME280;41156;51.508;5.406;2023-04-16T14:02:03;102378.56;;;12.01;100.00
54042;BME280;41156;51.508;5.406;2023-04-16T14:05:04;102367.56;;;12.02;100.00
54042;BME280;41156;51.508;5.406;2023-04-16T14:08:05;102373.06;;;12.09;100.00
54042;BME280;41156;51.508;5.406;2023-04-16T14:11:06;102369.69;;;12.07;100.00
54042;BME280;41156;51.508;5.406;2023-04-16T14:14:08;102369.59;;;12.00;100.00
54042;BME280;41156;51.508;5.406;2023-04-16T14:17:08;102369.41;;;12.02;100.00
54042;BME280;41156;51.508;5.406;2023-04-16T14:20:12;102373.97;;;12.16;100.00
54042;BME280;41156;51.508;5.406;2023-04-16T14:23:13;102363.69;;;12.27;100.00
54042;BME280;41156;51.508;5.406;2023-04-16T14:26:13;102369.09;;;12.27;100.00
54042;BME280;41156;51.508;5.406;2023-04-16T14:29:13;102368.94;;;12.13;100.00
54042;BME280;41156;51.508;5.406;2023-04-16T14:32:13;102366.88;;;12.00;100.00
54042;BME280;41156;51.508;5.406;2023-04-16T14:35:14;102368.47;;;11.95;100.00
54042;BME280;41156;51.508;5.406;2023-04-16T14:38:14;102375.09;;;11.92;100.00
54042;BME280;41156;51.508;5.406;2023-04-16T14:41:14;102361.41;;;11.85;100.00
54042;BME280;41156;51.508;5.406;2023-04-16T14:44:15;102367.69;;;11.86;100.00
54042;BME280;41156;51.508;5.406;2023-04-16T14:47:15;102366.28;;;11.90;100.00
54042;BME280;41156;51.508;5.406;2023-04-16T14:50:16;102369.75;;;11.84;100.00
54042;BME280;41156;51.508;5.406;2023-04-16T14:53:16;102359.03;;;11.91;100.00
54042;BME280;41156;51.508;5.406;2023-04-16T14:56:16;102357.81;;;12.08;100.00
54042;BME280;41156;51.508;5.406;2023-04-16T14:59:17;102356.69;;;12.32;100.00
54042;BME280;41156;51.508;5.406;2023-04-16T15:02:17;102351.63;;;12.44;100.00
54042;BME280;41156;51.508;5.406;2023-04-16T15:05:17;102353.16;;;12.53;100.00
54042;BME280;41156;51.508;5.406;2023-04-16T15:08:18;102353.31;;;12.67;100.00
54042;BME280;41156;51.508;5.406;2023-04-16T15:11:18;102349.66;;;12.74;100.00
54042;BME280;41156;51.508;5.406;2023-04-16T15:14:18;102359.94;;;12.79;100.00
54042;BME280;41156;51.508;5.406;2023-04-16T15:17:19;102354.44;;;12.72;100.00
54042;BME280;41156;51.508;5.406;2023-04-16T15:20:19;102346.69;;;12.69;100.00
54042;BME280;41156;51.508;5.406;2023-04-16T15:23:20;102355.00;;;12.68;100.00
54042;BME280;41156;51.508;5.406;2023-04-16T15:26:20;102353.19;;;12.75;100.00
54042;BME280;41156;51.508;5.406;2023-04-16T15:29:22;102351.38;;;12.82;100.00
54042;BME280;41156;51.508;5.406;2023-04-16T15:32:22;102358.31;;;12.85;100.00
54042;BME280;41156;51.508;5.406;2023-04-16T15:35:22;102362.16;;;12.75;100.00
54042;BME280;41156;51.508;5.406;2023-04-16T15:38:22;102351.84;;;12.64;100.00
54042;BME280;41156;51.508;5.406;2023-04-16T15:41:23;102355.06;;;12.38;100.00
54042;BME280;41156;51.508;5.406;2023-04-16T15:44:24;102368.84;;;12.21;100.00